La Guardia Airport

KLGA · 纽约州, 美国

METAR的历史 KLGA · La Guardia Airport

下面你可以看到过去几天的METARs。 选择年份以浏览从2007年开始的旧METAR。

2024年5月29日

时间 代码 天气 温度 能见度 天花板 METAR/SPECI
11:51
V
22 °C 10 mi - 120° 120° 3 kt METAR KLGA 291551Z 12003KT 10SM SCT049 22/10 A2994 RMK AO2 SLP139 T02220100
10:51
V
22 °C 10 mi - 040° 040° 6 kt METAR KLGA 291451Z 04006KT 10SM SCT040 22/10 A2993 RMK AO2 SLP135 T02170100 53008
09:51
V
21 °C 10 mi - 340° 340° 7 kt METAR KLGA 291351Z 34007KT 10SM FEW040 21/11 A2991 RMK AO2 SLP127 T02060111
08:51
V
19 °C 10 mi - 040° 040° 5 kt METAR KLGA 291251Z 04005KT 10SM FEW040 FEW100 19/11 A2992 RMK AO2 SLP130 T01940111
07:51
V
18 °C 10 mi - 320° 320° 7 kt METAR KLGA 291151Z 32007KT 10SM FEW100 18/11 A2991 RMK AO2 SLP127 T01780111 10189 20172 53017
06:51
V
17 °C 10 mi - 300° 300° 8 kt METAR KLGA 291051Z 30008KT 10SM FEW100 17/12 A2989 RMK AO2 SLP121 T01720117
05:51
V
17 °C 10 mi - 310° 310° 11 kt METAR KLGA 290951Z 31011KT 10SM FEW100 17/12 A2986 RMK AO2 SLP111 T01720117
04:51
V
17 °C 10 mi - 300° 300° 10 kt METAR KLGA 290851Z 30010KT 10SM FEW100 17/12 A2986 RMK AO2 SLP110 T01720117 51006
03:51
V
18 °C 10 mi - 290° 290° 10 kt METAR KLGA 290751Z 29010KT 10SM FEW100 18/12 A2986 RMK AO2 SLP109 T01780117
02:51
V
18 °C 10 mi - 310° 310° 7 kt METAR KLGA 290651Z 31007KT 10SM FEW100 18/12 A2985 RMK AO2 SLP109 T01830117
01:51
V
18 °C 10 mi - 320° 320° 8 kt METAR KLGA 290551Z 32008KT 10SM FEW100 18/12 A2984 RMK AO2 SLP104 T01830117 10256 20183 51005
00:51
V
19 °C 10 mi - 320° 320° 8 kt METAR KLGA 290451Z 32008KT 10SM FEW100 19/12 A2984 RMK AO2 SLP103 T01890117 402780183

2024年5月28日

时间 代码 天气 温度 能见度 天花板 METAR/SPECI
23:51
V
19 °C 10 mi - 310° 310° 8 kt METAR KLGA 290351Z 31008KT 10SM FEW100 19/11 A2984 RMK AO2 SLP103 T01940111
22:51
V
20 °C 10 mi - 310° 310° 10 kt METAR KLGA 290251Z 31010KT 10SM CLR 20/11 A2982 RMK AO2 SLP099 T02000106 51024
21:51
V
20 °C 10 mi - 320° 320° 7 kt METAR KLGA 290151Z 32007KT 10SM FEW100 20/11 A2980 RMK AO2 SLP092 T02000106
20:51
V
21 °C 10 mi - 320° 320° 14 - 22 kt METAR KLGA 290051Z 32014G22KT 10SM FEW070 SCT110 21/09 A2980 RMK AO2 PK WND 33030/0027 SLP091 T02110094
19:51
V
26 °C 10 mi - 300° 300° 18 - 25 kt METAR KLGA 282351Z 30018G25KT 10SM SCT070 SCT090 26/10 A2975 RMK AO2 PK WND 30027/2319 SLP075 T02560100 10278 20256 53014
18:51
V
27 °C 10 mi - 260° 260° 15 - 27 kt METAR KLGA 282251Z 26015G27KT 10SM SCT060 27/09 A2973 RMK AO2 PK WND 27028/2227 SLP067 T02670089
17:51
V
27 °C 10 mi - 240° 240° 10 - 23 kt METAR KLGA 282151Z 24010G23KT 10SM FEW060 27/09 A2971 RMK AO2 PK WND 24028/2118 SLP059 T02720094
16:51
V
27 °C 10 mi - 260° 260° 14 - 26 kt METAR KLGA 282051Z 26014G26KT 10SM FEW060 SCT250 27/09 A2971 RMK AO2 PK WND 26026/2000 SLP060 T02670094 55006
15:51
V
27 °C 10 mi - 260° 260° 16 - 24 kt METAR KLGA 281951Z 26016G24KT 10SM SCT060 SCT250 27/09 A2971 RMK AO2 PK WND 27027/1926 SLP060 T02670094
14:51
V
26 °C 10 mi 5.500 ft 270° 270° 16 - 25 kt METAR KLGA 281851Z 27016G25KT 10SM BKN055 BKN250 26/11 A2973 RMK AO2 SLP067 T02610106
13:51
V
26 °C 10 mi - 260° 260° 12 kt METAR KLGA 281751Z 26012KT 10SM SCT050 26/12 A2973 RMK AO2 SLP067 T02610117 10267 20211 50001
12:51
V
26 °C 10 mi - 250° 250° 12 - 20 kt METAR KLGA 281651Z 25012G20KT 10SM SCT050 26/11 A2974 RMK AO2 SLP069 T02560111
11:51
V
24 °C 10 mi - 280° 280° 6 kt METAR KLGA 281551Z COR 28006KT 10SM FEW027 24/11 A2974 RMK AO2 SLP071 T02440111
10:51
V
23 °C 10 mi - 280° 280° 11 - 19 kt METAR KLGA 281451Z 28011G19KT 10SM FEW025 23/11 A2973 RMK AO2 SLP066 T02330111 55001
09:51
V
22 °C 10 mi - 290° 290° 11 - 22 kt METAR KLGA 281351Z 29011G22KT 10SM FEW025 22/12 A2972 RMK AO2 SLP065 T02220122
08:51
V
21 °C 10 mi - 310° 310° 12 - 24 kt METAR KLGA 281251Z 31012G24KT 10SM FEW020 21/13 A2973 RMK AO2 SLP067 T02110128
07:51
V
22 °C 10 mi - 250° 250° 14 - 23 kt METAR KLGA 281151Z 25014G23KT 10SM FEW010 22/15 A2973 RMK AO2 SLP066 70059 T02170150 10222 20183 53013 $
06:51
V
21 °C 10 mi - 230° 230° 9 - 17 kt METAR KLGA 281051Z 23009G17KT 10SM FEW010 21/18 A2971 RMK AO2 SLP061 T02110183 $
06:01
V
19 °C 5 mi - Var Var 3 kt METAR KLGA 281001Z VRB03KT 5SM BR FEW006 19/18 A2970 RMK AO2 T01890178 $
05:51
M
19 °C 4 mi - 360° 360° 0 kt METAR KLGA 280951Z 00000KT 4SM BR FEW018 19/18 A2970 RMK AO2 SLP057 T01890178 $
04:51
V
19 °C 5 mi - 180° 180° 7 kt METAR KLGA 280851Z 18007KT 5SM BR SCT018 19/18 A2969 RMK AO2 SLP054 T01940178 53007 $
03:51
V
19 °C 5 mi - 360° 360° 0 kt METAR KLGA 280751Z 00000KT 5SM BR FEW010 FEW250 19/17 A2967 RMK AO2 SLP045 T01890172 $
02:51
V
19 °C 8 mi - 150° 150° 3 kt METAR KLGA 280651Z 15003KT 8SM FEW010 FEW250 19/18 A2966 RMK AO2 SLP043 T01940178 $
02:17
V
19 °C 8 mi - 360° 360° 0 kt METAR KLGA 280617Z 00000KT 8SM FEW013 SCT250 19/17 A2966 RMK AO2 T01890172 $
01:51
M
19 °C 7 mi 1.500 ft 190° 190° 5 kt METAR KLGA 280551Z 19005KT 7SM BKN015 OVC250 19/17 A2967 RMK AO2 SLP046 60000 T01940172 10200 20189 58012 $
01:21
M
19 °C 8 mi 1.600 ft 180° 180° 6 kt METAR KLGA 280521Z 18006KT 8SM BKN016 OVC250 19/17 A2966 RMK AO2 T01940172 $
00:51
V
19 °C 9 mi 25.000 ft 170° 170° 6 kt METAR KLGA 280451Z 17006KT 9SM FEW010 SCT016 OVC250 19/18 A2968 RMK AO2 SLP052 T01940178 402500189 $
00:09
M
19 °C 10 mi 2.900 ft 360° 360° 0 kt METAR KLGA 280409Z 00000KT 10SM SCT018 BKN029 BKN038 OVC250 19/17 A2970 RMK AO2 T01940172 $

2024年5月27日

时间 代码 天气 温度 能见度 天花板 METAR/SPECI
23:51
V
19 °C 10 mi 4.600 ft 200° 200° 4 kt METAR KLGA 280351Z 20004KT 10SM SCT040 BKN046 BKN095 OVC250 19/17 A2970 RMK AO2 LTG DSNT NW SLP058 T01940172 $
22:51
V
19 °C 10 mi 25.000 ft 170° 170° 6 kt METAR KLGA 280251Z 17006KT 10SM SCT055 OVC250 19/17 A2970 RMK AO2 SLP058 60000 T01940172 58001 $
22:20
V
19 °C 10 mi 5.500 ft 180° 180° 8 kt METAR KLGA 280220Z 18008KT 10SM FEW022 OVC055 19/17 A2973 RMK AO2 T01940172 $
21:51
M
19 °C 10 mi 2.000 ft 180° 180° 6 kt METAR KLGA 280151Z 18006KT 10SM FEW008 BKN020 OVC090 19/17 A2974 RMK AO2 RAB09E30 SLP069 P0000 T01940172 $
20:51
M
19 °C 10 mi 1.500 ft 160° 160° 14 - 18 kt METAR KLGA 280051Z 16014G18KT 10SM SCT008 BKN015 OVC030 19/17 A2971 RMK AO2 SLP060 T01890172 $
20:44
M
19 °C 10 mi 1.500 ft 170° 170° 11 kt METAR KLGA 280044Z 17011KT 10SM SCT008 BKN015 OVC030 19/17 A2971 RMK AO2 LTG DSNT E T01940172 $
19:51
M
19 °C 10 mi 1.000 ft 170° 170° 8 kt METAR KLGA 272351Z 17008KT 120V190 10SM SCT008 BKN010 BKN100 OVC150 19/18 A2971 RMK AO2 RAE48 SLP059 P0001 60059 T01940178 10222 20194 55004 $
18:51
M
20 °C 5 mi 1.000 ft 160° 160° 13 kt METAR KLGA 272251Z 16013KT 5SM -RA BR SCT008 BKN010 OVC080 20/18 A2970 RMK AO2 RAB34E44B46 SLP056 P0001 T02000178 $
17:51
I
21 °C 10 mi 800 ft 160° 160° 13 kt METAR KLGA 272151Z 16013KT 10SM BKN008 BKN030 OVC120 21/18 A2970 RMK AO2 SLP058 T02060183 $
17:40
M
21 °C 10 mi 1.000 ft 160° 160° 16 - 21 kt METAR KLGA 272140Z 16016G21KT 10SM SCT008 BKN010 OVC120 21/18 A2970 RMK AO2 T02060183 $
16:51
M
22 °C 10 mi 1.000 ft 170° 170° 10 - 21 kt METAR KLGA 272051Z 17010G21KT 10SM BKN010 OVC050 22/19 A2972 RMK AO2 RAE06 SLP063 P0000 60057 T02220194 58026 $
15:51
V
21 °C 7 mi 5.000 ft 160° 160° 13 - 22 kt METAR KLGA 271951Z 16013G22KT 7SM -RA SCT020 BKN050 OVC100 21/19 A2975 RMK AO2 PK WND 20029/1855 WSHFT 1839 LTG DSNT E TSB1855E37 SLP074 P0041 T02110194 $
15:38
M
21 °C 5 mi 2.000 ft 160° 160° 13 - 23 kt METAR KLGA 271938Z 16013G23KT 5SM -RA BR BKN020 OVC050 21/19 A2975 RMK AO2 PK WND 20029/1855 WSHFT 1839 TSB1855E37 LTG DSNT NE P0040 T02110194 $
15:09
I
22 °C 1 mi 800 ft 170° 170° 16 - 27 kt METAR KLGA 271909Z 17016G27KT 1SM R04/P6000FT +TSRA FEW005 OVC008CB 22/19 A2977 RMK AO2 PK WND 20029/1855 WSHFT 1839 TSB1855 OCNL LTGCC VC N TS N MOV NE P0036 T02170189 $
15:02
I
21 °C 1¼ mi 800 ft 180° 180° 14 - 29 kt METAR KLGA 271902Z 18014G29KT 1 1/4SM R04/2600VP6000FT +TSRA BR FEW005 OVC008CB 21/19 A2979 RMK AO2 PK WND 20029/1855 WSHFT 1839 TSB1855 P0033 T02110189 $
14:58
L
21 °C ½ mi 800 ft 180° 180° 15 - 29 kt METAR KLGA 271858Z 18015G29KT 1/2SM R04/1600VP6000FT +TSRA FG FEW005 OVC008CB 21/19 A2978 RMK AO2 PK WND 20029/1855 WSHFT 1839 TSB55 P0031 T02060189 $
14:39
M
22 °C 5 mi 1.100 ft 160° 160° 15 - 22 kt METAR KLGA 271839Z 16015G22KT 5SM -RA BKN011 OVC050 22/19 A2977 RMK AO2 PK WND 16026/1759 RAB1755E06B23 P0004 T02170189 $
13:51
V
22 °C 10 mi 9.000 ft 170° 170° 17 - 29 kt METAR KLGA 271751Z 17017G29KT 10SM SCT013 BKN090 BKN110 BKN250 22/18 A2979 RMK AO2 PK WND 16031/1700 RAB05E27 SLP089 P0000 60000 T02220183 10250 20206 58024 $
12:51
V
24 °C 10 mi 11.000 ft 180° 180° 16 - 28 kt METAR KLGA 271651Z 18016G28KT 10SM SCT011 SCT019 BKN110 BKN230 24/18 A2984 RMK AO2 PK WND 17032/1604 LTG DSNT S SLP104 CB DSNT S-SW T02440183 $
12:37
V
24 °C 10 mi 11.000 ft 160° 160° 17 - 28 kt METAR KLGA 271637Z 16017G28KT 10SM SCT011 SCT016 BKN110 BKN230 24/19 A2983 RMK AO2 PK WND 17032/1604 CB DSNT SW T02390189 $
11:51
M
24 °C 10 mi 1.100 ft 160° 160° 19 - 27 kt METAR KLGA 271551Z 16019G27KT 10SM BKN011 BKN027 BKN110 24/19 A2985 RMK AO2 PK WND 16027/1549 SLP108 T02390194 $
11:02
M
23 °C 10 mi 1.100 ft 160° 160° 14 - 25 kt METAR KLGA 271502Z 16014G25KT 10SM FEW006 BKN011 BKN023 23/19 A2986 RMK AO2 T02280189 $
10:51
I
23 °C 10 mi 900 ft 170° 170° 14 kt METAR KLGA 271451Z 17014KT 10SM BKN009 BKN015 OVC050 23/19 A2986 RMK AO2 SLP113 60000 T02280194 58005 $
10:08
I
22 °C 10 mi 600 ft 140° 140° 12 - 20 kt METAR KLGA 271408Z 14012G20KT 10SM BKN006 BKN010 BKN110 22/20 A2986 RMK AO2 T02170200 $
09:51
I
21 °C 10 mi 700 ft 160° 160° 11 kt METAR KLGA 271351Z 16011KT 10SM OVC007 21/19 A2987 RMK AO2 SLP116 T02110194 $
08:51
I
22 °C 10 mi 700 ft 120° 120° 7 kt METAR KLGA 271251Z 12007KT 10SM OVC007 22/19 A2988 RMK AO2 RAE1153 SLP118 P0000 T02170194 $
08:33
I
21 °C 10 mi 700 ft 130° 130° 6 kt METAR KLGA 271233Z 13006KT 10SM OVC007 21/19 A2989 RMK AO2 RAE1153 P0000 T02110194 $
07:51
I
21 °C 7 mi 800 ft 140° 140° 4 kt METAR KLGA 271151Z 14004KT 7SM -RA OVC008 21/19 A2988 RMK AO2 RAB14 SLP118 P0015 60015 70015 T02060189 10222 20189 51001 $
07:25
I
21 °C 2 mi 900 ft 150° 150° 7 kt METAR KLGA 271125Z 15007KT 090V180 2SM R04/5000VP6000FT +RA BR BKN009 BKN028 OVC055 21/19 A2988 RMK AO2 SFC VIS 3 RAB14 P0008 T02110189 $
07:03
I
21 °C 7 mi 800 ft 150° 150° 6 kt METAR KLGA 271103Z 15006KT 7SM BKN008 OVC012 21/19 A2988 RMK AO2 T02110189 $
06:51
I
22 °C 7 mi 700 ft 140° 140° 8 kt METAR KLGA 271051Z 14008KT 7SM OVC007 22/19 A2988 RMK AO2 LTG DSNT NW SLP118 T02220189 $
05:51
I
20 °C 4 mi 500 ft 150° 150° 6 kt METAR KLGA 270951Z 15006KT 4SM OVC005 20/18 A2988 RMK AO2 SLP117 T02000183 $
04:51
I
19 °C 5 mi 500 ft 160° 160° 8 kt METAR KLGA 270851Z 16008KT 5SM BR OVC005 19/18 A2988 RMK AO2 SLP119 T01940178 56007 $
03:51
L
19 °C 5 mi 300 ft 160° 160° 9 kt METAR KLGA 270751Z 16009KT 5SM BR OVC003 19/18 A2989 RMK AO2 SLP121 T01940178 $
02:51
L
19 °C 1½ mi 300 ft 160° 160° 8 kt METAR KLGA 270651Z 16008KT 1 1/2SM BR OVC003 19/18 A2988 RMK AO2 SFC VIS 2 SLP119 T01890178 $
01:51
L
19 °C 1½ mi 300 ft 160° 160° 8 kt METAR KLGA 270551Z 16008KT 1 1/2SM BR OVC003 19/17 A2991 RMK AO2 SFC VIS 2 SLP127 T01890172 10233 20189 58001 $
报告变更